Time;durP1;ratioP1;P1;durP2;ratioP2;P2;SDS_P1;SDS_P2;PMS_P1;PMS_P2;Temp;Humidity;BMP_temperature;BMP_pressure;BME280_temperature;BME280_humidity;BME280_pressure;Samples;Min_cycle;Max_cycle;Signal;HPM_P1;HPM_P2
2021/09/30 00:00:41;;;;;;;10.95;2.25;;;;;;;;;;4951751;28;20096;-81
2021/09/30 00:03:10;;;;;;;10.65;2.78;;;;;;;;;;4940807;28;20038;-81
2021/09/30 00:05:41;;;;;;;11.80;2.38;;;;;;;;;;4926317;28;20046;-80
2021/09/30 00:08:12;;;;;;;9.20;1.85;;;;;;;;;;4953830;28;20625;-81
2021/09/30 00:10:57;;;;;;;13.40;2.17;;;;;;;;;;4934805;28;20041;-81
2021/09/30 00:33:21;;;;;;;10.82;2.47;;;;;;;;;;4980362;28;20049;-80
2021/09/30 00:41:12;;;;;;;11.00;2.40;;;;;;;;;;4978189;28;20136;-83
2021/09/30 00:46:41;;;;;;;12.10;2.40;;;;;;;;;;4978398;28;20053;-81
2021/09/30 00:52:17;;;;;;;10.15;1.85;;;;;;;;;;4952098;28;20415;-80
2021/09/30 00:55:03;;;;;;;10.38;1.90;;;;;;;;;;4942853;28;20044;-81
2021/09/30 03:00:34;;;;;;;9.75;1.75;;;;;;;;;;4934247;28;21110;-81
2021/09/30 03:03:08;;;;;;;11.25;1.50;;;;;;;;;;4944911;28;20041;-81
2021/09/30 03:05:37;;;;;;;9.63;1.60;;;;;;;;;;4916458;28;20512;-81
2021/09/30 03:08:08;;;;;;;12.32;1.73;;;;;;;;;;4925631;28;20047;-81
2021/09/30 03:10:38;;;;;;;9.73;1.63;;;;;;;;;;4924572;28;20117;-80
2021/09/30 03:13:05;;;;;;;10.88;1.75;;;;;;;;;;4926349;28;20050;-80
2021/09/30 03:15:43;;;;;;;11.10;1.40;;;;;;;;;;4917484;28;20046;-80
2021/09/30 03:23:53;;;;;;;8.32;1.70;;;;;;;;;;4937717;28;20237;-80
2021/09/30 03:26:25;;;;;;;7.20;1.50;;;;;;;;;;4981145;28;20054;-79
2021/09/30 03:28:56;;;;;;;8.73;1.40;;;;;;;;;;4980136;28;20742;-80
2021/09/30 03:31:26;;;;;;;10.35;1.63;;;;;;;;;;4964821;28;20381;-80
2021/09/30 03:33:59;;;;;;;7.82;1.55;;;;;;;;;;4982243;28;20048;-80
2021/09/30 03:36:39;;;;;;;10.27;1.52;;;;;;;;;;4929029;28;20113;-81
2021/09/30 03:39:14;;;;;;;10.55;1.50;;;;;;;;;;4981956;28;20105;-81
2021/09/30 03:41:44;;;;;;;;;;;;;;;;;;4961186;28;20037;-80
2021/09/30 03:44:12;;;;;;;5.82;1.00;;;;;;;;;;4979093;28;19972;-81
2021/09/30 03:46:40;;;;;;;9.43;1.30;;;;;;;;;;4962713;28;20048;-80
2021/09/30 03:49:11;;;;;;;5.70;1.33;;;;;;;;;;4968396;28;20129;-81
2021/09/30 03:54:24;;;;;;;9.88;1.60;;;;;;;;;;4961419;28;20053;-81
2021/09/30 03:59:38;;;;;;;9.75;1.40;;;;;;;;;;4958784;28;20073;-81
2021/09/30 04:02:07;;;;;;;10.60;1.75;;;;;;;;;;4964311;28;20030;-81
2021/09/30 04:04:37;;;;;;;8.77;1.75;;;;;;;;;;4941100;28;20101;-80
2021/09/30 04:07:17;;;;;;;10.50;2.05;;;;;;;;;;4963226;28;20038;-80
2021/09/30 04:09:44;;;;;;;10.35;1.60;;;;;;;;;;4955588;28;20039;-80
2021/09/30 04:12:13;;;;;;;8.75;1.60;;;;;;;;;;4946776;28;20125;-81
2021/09/30 04:14:43;;;;;;;5.15;1.30;;;;;;;;;;4960219;28;20113;-81
2021/09/30 04:17:09;;;;;;;10.65;1.90;;;;;;;;;;4919290;28;20035;-82
2021/09/30 04:19:38;;;;;;;12.82;1.90;;;;;;;;;;4919253;28;20114;-82
2021/09/30 04:22:05;;;;;;;8.15;1.55;;;;;;;;;;4903968;28;20448;-82
2021/09/30 04:24:32;;;;;;;6.38;1.50;;;;;;;;;;4921285;28;20067;-79
2021/09/30 04:27:04;;;;;;;7.90;1.40;;;;;;;;;;4924663;28;20039;-81
2021/09/30 04:29:31;;;;;;;8.18;1.33;;;;;;;;;;4899695;28;20528;-80
2021/09/30 04:32:00;;;;;;;9.05;1.40;;;;;;;;;;4927697;28;20118;-79
2021/09/30 04:34:27;;;;;;;8.02;1.45;;;;;;;;;;4904214;28;20031;-81
2021/09/30 04:36:55;;;;;;;10.43;1.60;;;;;;;;;;4920068;28;20661;-81
2021/09/30 04:39:22;;;;;;;8.88;2.00;;;;;;;;;;4924823;28;20066;-80
2021/09/30 04:41:51;;;;;;;8.02;1.73;;;;;;;;;;4902317;28;20167;-82
2021/09/30 04:44:20;;;;;;;9.98;1.48;;;;;;;;;;4908164;28;20074;-81
2021/09/30 04:46:49;;;;;;;9.05;1.50;;;;;;;;;;4923295;28;20039;-82
2021/09/30 04:49:19;;;;;;;9.75;1.73;;;;;;;;;;4902655;28;20702;-81
2021/09/30 04:51:45;;;;;;;9.90;1.95;;;;;;;;;;4896105;28;20079;-81
2021/09/30 04:54:12;;;;;;;10.13;1.92;;;;;;;;;;4923863;28;20043;-81
2021/09/30 04:56:40;;;;;;;11.32;2.10;;;;;;;;;;4920098;28;20036;-82
2021/09/30 04:59:07;;;;;;;6.47;1.40;;;;;;;;;;4908882;28;20041;-80
2021/09/30 05:01:36;;;;;;;10.18;2.38;;;;;;;;;;4940886;28;20042;-81
2021/09/30 05:04:04;;;;;;;9.30;2.10;;;;;;;;;;4948079;28;20057;-80
2021/09/30 05:06:33;;;;;;;9.43;1.90;;;;;;;;;;4943833;28;20026;-80
2021/09/30 05:09:03;;;;;;;6.47;1.65;;;;;;;;;;4947932;28;20141;-81
2021/09/30 05:11:39;;;;;;;8.80;1.73;;;;;;;;;;4946970;28;20065;-81
2021/09/30 05:14:12;;;;;;;9.75;1.50;;;;;;;;;;4949635;28;20050;-82
2021/09/30 05:16:38;;;;;;;7.68;1.50;;;;;;;;;;4958753;28;20592;-81
2021/09/30 05:19:08;;;;;;;10.30;2.00;;;;;;;;;;4948596;28;20057;-82
2021/09/30 05:21:46;;;;;;;9.45;1.80;;;;;;;;;;4947812;28;20031;-83
2021/09/30 05:24:15;;;;;;;12.57;2.20;;;;;;;;;;4946303;28;20038;-81
2021/09/30 05:26:44;;;;;;;10.45;2.05;;;;;;;;;;4946450;28;20574;-81
2021/09/30 05:29:12;;;;;;;11.68;2.17;;;;;;;;;;4968025;28;20038;-82
2021/09/30 05:31:41;;;;;;;9.75;2.08;;;;;;;;;;4950194;28;20041;-81
2021/09/30 05:34:09;;;;;;;9.95;1.80;;;;;;;;;;4962663;28;20043;-80
2021/09/30 05:36:45;;;;;;;11.32;1.80;;;;;;;;;;4957261;28;20096;-81
2021/09/30 05:39:15;;;;;;;8.32;2.00;;;;;;;;;;4947186;28;20109;-80
2021/09/30 05:41:54;;;;;;;12.13;2.03;;;;;;;;;;4971451;28;20047;-89
2021/09/30 05:44:24;;;;;;;9.45;2.08;;;;;;;;;;4951192;28;21027;-88
2021/09/30 05:46:54;;;;;;;8.90;2.15;;;;;;;;;;4995333;28;20022;-88
2021/09/30 05:49:25;;;;;;;12.93;2.00;;;;;;;;;;4984023;28;20046;-88
2021/09/30 05:51:52;;;;;;;10.93;2.17;;;;;;;;;;4976399;28;20049;-88
2021/09/30 05:54:44;;;;;;;10.68;2.03;;;;;;;;;;4992281;28;20065;-88
2021/09/30 05:57:13;;;;;;;8.63;1.70;;;;;;;;;;4964899;28;20129;-89
2021/09/30 05:59:40;;;;;;;10.75;2.15;;;;;;;;;;4977736;28;20038;-88
2021/09/30 06:10:34;;;;;;;10.02;2.20;;;;;;;;;;4977985;28;20045;-88
2021/09/30 06:13:08;;;;;;;10.98;2.13;;;;;;;;;;4976795;28;20112;-89
2021/09/30 06:15:43;;;;;;;10.52;2.40;;;;;;;;;;4976258;28;20025;-89
2021/09/30 06:18:19;;;;;;;8.93;2.00;;;;;;;;;;4979499;28;20563;-89
2021/09/30 06:20:47;;;;;;;13.25;2.30;;;;;;;;;;4963483;28;20113;-90
2021/09/30 06:23:24;;;;;;;15.02;2.35;;;;;;;;;;4988705;28;20033;-90
2021/09/30 06:25:56;;;;;;;10.32;2.10;;;;;;;;;;4985560;28;20162;-91
2021/09/30 06:28:24;;;;;;;8.52;1.70;;;;;;;;;;4980807;28;20129;-88
2021/09/30 06:30:52;;;;;;;13.20;2.08;;;;;;;;;;4969219;28;20034;-90
2021/09/30 06:33:24;;;;;;;11.30;1.95;;;;;;;;;;4952136;28;20038;-88
2021/09/30 06:35:52;;;;;;;11.77;2.40;;;;;;;;;;4954554;28;20043;-91
2021/09/30 06:38:20;;;;;;;9.45;1.80;;;;;;;;;;4971125;28;20034;-90
2021/09/30 06:40:47;;;;;;;11.10;1.88;;;;;;;;;;4979665;28;20043;-89
2021/09/30 06:43:25;;;;;;;9.93;2.03;;;;;;;;;;4969524;28;20039;-89
2021/09/30 06:45:54;;;;;;;8.75;1.77;;;;;;;;;;4963115;28;20121;-88
2021/09/30 06:48:21;;;;;;;10.27;1.70;;;;;;;;;;4968404;28;20030;-89
2021/09/30 06:50:50;;;;;;;10.40;1.70;;;;;;;;;;5002937;28;20041;-90
2021/09/30 06:53:27;;;;;;;12.30;2.08;;;;;;;;;;4984837;28;20045;-89
2021/09/30 06:56:02;;;;;;;8.63;1.60;;;;;;;;;;4985624;28;20034;-90
2021/09/30 06:58:31;;;;;;;12.33;1.73;;;;;;;;;;4985226;28;20048;-88
2021/09/30 07:00:58;;;;;;;9.98;1.88;;;;;;;;;;4990779;28;20105;-89
2021/09/30 07:03:25;;;;;;;14.25;2.00;;;;;;;;;;4987691;28;20034;-88
2021/09/30 07:05:54;;;;;;;11.82;2.03;;;;;;;;;;4994555;28;20030;-89
2021/09/30 07:08:27;;;;;;;8.20;1.92;;;;;;;;;;4985658;28;20042;-90
2021/09/30 07:11:00;;;;;;;12.18;2.45;;;;;;;;;;5001496;28;20041;-90
2021/09/30 07:13:28;;;;;;;11.25;2.45;;;;;;;;;;4965570;28;20456;-89
2021/09/30 07:15:56;;;;;;;10.35;2.28;;;;;;;;;;4981202;28;20133;-90
2021/09/30 07:18:28;;;;;;;14.40;2.35;;;;;;;;;;4984723;28;20065;-89
2021/09/30 07:21:03;;;;;;;9.15;2.20;;;;;;;;;;4994684;28;20550;-89
2021/09/30 07:23:33;;;;;;;9.15;1.98;;;;;;;;;;4994307;28;20096;-89
2021/09/30 07:26:01;;;;;;;12.43;1.90;;;;;;;;;;4965060;28;20038;-89
2021/09/30 07:28:30;;;;;;;11.20;2.13;;;;;;;;;;4995663;28;20061;-89
2021/09/30 07:31:01;;;;;;;8.93;1.90;;;;;;;;;;4997465;28;20042;-89
2021/09/30 07:33:29;;;;;;;9.13;2.25;;;;;;;;;;4992422;28;20034;-90
2021/09/30 07:35:57;;;;;;;10.45;2.53;;;;;;;;;;4975797;28;20030;-90
2021/09/30 07:38:25;;;;;;;11.88;2.88;;;;;;;;;;4964158;28;20073;-91
2021/09/30 07:40:53;;;;;;;13.70;3.45;;;;;;;;;;4979757;28;20093;-90
2021/09/30 07:43:22;;;;;;;16.30;3.60;;;;;;;;;;4963719;28;20038;-90
2021/09/30 07:45:50;;;;;;;23.08;4.05;;;;;;;;;;4985553;28;20048;-91
2021/09/30 07:48:21;;;;;;;14.60;3.40;;;;;;;;;;4980760;28;20023;-91
2021/09/30 07:50:50;;;;;;;14.07;3.40;;;;;;;;;;4942611;28;20443;-89
2021/09/30 07:53:24;;;;;;;10.82;3.30;;;;;;;;;;4978338;28;20038;-90
2021/09/30 07:55:52;;;;;;;13.93;3.17;;;;;;;;;;4947697;28;20027;-91
2021/09/30 07:58:21;;;;;;;12.93;3.53;;;;;;;;;;4978983;28;20035;-90
2021/09/30 08:00:53;;;;;;;12.80;3.17;;;;;;;;;;4978405;28;20045;-90
2021/09/30 08:03:21;;;;;;;11.30;3.13;;;;;;;;;;4983759;28;20045;-90
2021/09/30 08:05:48;;;;;;;10.93;3.03;;;;;;;;;;4978648;28;20042;-91
2021/09/30 08:08:18;;;;;;;14.65;3.10;;;;;;;;;;4997947;28;20022;-90
2021/09/30 08:10:56;;;;;;;13.70;3.47;;;;;;;;;;5000646;28;20098;-89
2021/09/30 08:13:24;;;;;;;12.55;3.45;;;;;;;;;;4988900;28;20049;-90
2021/09/30 08:15:53;;;;;;;12.40;3.13;;;;;;;;;;4974963;28;20046;-90
2021/09/30 08:18:21;;;;;;;13.02;3.13;;;;;;;;;;5000392;28;20030;-90
2021/09/30 08:20:50;;;;;;;10.43;2.92;;;;;;;;;;4984320;28;20921;-90
2021/09/30 08:23:17;;;;;;;12.63;2.90;;;;;;;;;;4995891;28;20045;-90
2021/09/30 08:25:48;;;;;;;12.85;3.40;;;;;;;;;;4996603;28;20049;-90
2021/09/30 08:28:17;;;;;;;11.52;2.92;;;;;;;;;;5008937;28;20037;-90
2021/09/30 08:30:45;;;;;;;11.75;2.92;;;;;;;;;;5001810;28;20113;-89
2021/09/30 08:33:11;;;;;;;8.43;2.30;;;;;;;;;;4987133;28;20038;-90
2021/09/30 08:35:39;;;;;;;11.38;2.72;;;;;;;;;;4969462;28;20023;-91
2021/09/30 08:38:07;;;;;;;12.02;2.40;;;;;;;;;;4966599;28;20097;-91
2021/09/30 08:40:37;;;;;;;11.93;2.70;;;;;;;;;;4984731;28;20038;-90
2021/09/30 08:43:07;;;;;;;13.35;2.85;;;;;;;;;;5014902;28;20038;-90
2021/09/30 08:45:58;;;;;;;12.82;2.22;;;;;;;;;;4976003;28;20044;-90
2021/09/30 08:48:26;;;;;;;9.27;2.03;;;;;;;;;;4999876;28;20030;-90
2021/09/30 08:50:56;;;;;;;10.10;2.42;;;;;;;;;;4986501;28;20050;-90
2021/09/30 08:53:24;;;;;;;11.00;2.25;;;;;;;;;;4986728;28;20081;-90
2021/09/30 08:55:51;;;;;;;12.13;2.00;;;;;;;;;;4999455;28;20034;-90
2021/09/30 08:58:18;;;;;;;10.98;1.98;;;;;;;;;;5000784;28;20041;-90
2021/09/30 09:00:49;;;;;;;11.30;1.92;;;;;;;;;;4984008;28;20038;-90
2021/09/30 09:03:19;;;;;;;12.95;2.10;;;;;;;;;;4985432;28;20033;-90
2021/09/30 09:05:46;;;;;;;10.57;1.90;;;;;;;;;;4982150;28;20038;-90
2021/09/30 09:08:13;;;;;;;13.50;1.98;;;;;;;;;;5001528;28;20037;-89
2021/09/30 09:10:46;;;;;;;11.38;2.15;;;;;;;;;;4979975;28;20081;-89
2021/09/30 09:13:21;;;;;;;8.65;2.20;;;;;;;;;;4971808;28;20038;-88
2021/09/30 09:15:54;;;;;;;9.15;2.38;;;;;;;;;;4963478;28;20053;-89
2021/09/30 09:18:39;;;;;;;12.15;2.40;;;;;;;;;;5000409;28;20520;-90
2021/09/30 09:21:11;;;;;;;12.77;2.67;;;;;;;;;;5011684;28;20025;-90
2021/09/30 09:23:42;;;;;;;12.10;2.30;;;;;;;;;;4980903;28;20471;-89
2021/09/30 09:26:22;;;;;;;8.73;2.45;;;;;;;;;;4984022;28;20976;-90
2021/09/30 09:29:09;;;;;;;11.85;2.45;;;;;;;;;;4984405;28;20033;-91
2021/09/30 09:31:40;;;;;;;13.93;3.08;;;;;;;;;;4990497;28;20026;-90
2021/09/30 09:34:40;;;;;;;10.70;2.60;;;;;;;;;;4993806;28;20041;-92
2021/09/30 09:37:38;;;;;;;11.43;2.10;;;;;;;;;;4959528;28;20066;-91
2021/09/30 09:40:19;;;;;;;11.15;2.28;;;;;;;;;;4940092;28;20075;-91
2021/09/30 09:42:48;;;;;;;10.45;2.40;;;;;;;;;;4946246;28;20055;-90
2021/09/30 09:45:15;;;;;;;7.88;1.50;;;;;;;;;;4957216;28;20090;-91
2021/09/30 09:47:44;;;;;;;10.70;2.15;;;;;;;;;;4947299;28;20035;-91
2021/09/30 09:50:14;;;;;;;10.75;1.90;;;;;;;;;;4927546;28;20459;-90
2021/09/30 09:52:47;;;;;;;10.63;1.83;;;;;;;;;;4941176;28;20476;-91
2021/09/30 09:55:16;;;;;;;10.43;1.92;;;;;;;;;;4948026;28;20047;-91
2021/09/30 09:57:58;;;;;;;8.98;1.75;;;;;;;;;;4950606;28;20023;-90
2021/09/30 10:00:26;;;;;;;8.68;1.98;;;;;;;;;;4946998;28;20178;-90
2021/09/30 10:02:53;;;;;;;11.13;1.75;;;;;;;;;;4950237;28;20130;-91
2021/09/30 10:05:21;;;;;;;9.30;2.20;;;;;;;;;;4965208;28;20107;-91
2021/09/30 10:07:50;;;;;;;10.70;2.25;;;;;;;;;;4926654;28;20129;-91
2021/09/30 10:10:18;;;;;;;12.35;2.50;;;;;;;;;;4953815;28;20755;-91
2021/09/30 10:12:46;;;;;;;10.45;1.77;;;;;;;;;;4966277;28;20049;-90
2021/09/30 10:15:13;;;;;;;11.93;2.17;;;;;;;;;;4989818;28;20423;-90
2021/09/30 10:17:41;;;;;;;10.65;2.33;;;;;;;;;;4988424;28;20041;-89
2021/09/30 10:20:09;;;;;;;17.40;2.00;;;;;;;;;;4976919;28;20045;-90
2021/09/30 10:22:36;;;;;;;11.05;1.92;;;;;;;;;;4993447;28;20046;-91
2021/09/30 10:25:04;;;;;;;13.48;2.03;;;;;;;;;;5008163;28;20037;-90
2021/09/30 10:27:33;;;;;;;13.00;2.28;;;;;;;;;;5018808;28;20037;-91
2021/09/30 10:30:00;;;;;;;10.82;2.40;;;;;;;;;;5004257;28;20025;-91
2021/09/30 10:32:30;;;;;;;10.05;2.22;;;;;;;;;;5010137;28;20536;-90
2021/09/30 10:34:59;;;;;;;8.15;1.85;;;;;;;;;;5007885;28;20038;-91
2021/09/30 10:37:27;;;;;;;7.85;2.00;;;;;;;;;;5010338;28;20034;-90
2021/09/30 10:40:06;;;;;;;10.13;2.13;;;;;;;;;;5013846;28;20033;-90
2021/09/30 10:42:53;;;;;;;9.93;1.95;;;;;;;;;;5008629;28;20038;-91
2021/09/30 10:45:21;;;;;;;7.70;1.80;;;;;;;;;;5006586;28;20967;-91
2021/09/30 10:47:48;;;;;;;8.07;1.90;;;;;;;;;;4996289;28;20038;-88
2021/09/30 10:50:15;;;;;;;7.60;1.70;;;;;;;;;;4977946;28;20053;-87
2021/09/30 10:52:55;;;;;;;10.07;1.90;;;;;;;;;;4977588;28;20122;-89
2021/09/30 10:55:25;;;;;;;8.93;1.75;;;;;;;;;;4992075;28;20046;-88
2021/09/30 10:57:52;;;;;;;8.02;2.28;;;;;;;;;;4974858;28;20672;-88
2021/09/30 11:00:21;;;;;;;7.95;2.10;;;;;;;;;;4997696;28;20034;-87
2021/09/30 11:03:09;;;;;;;9.75;2.38;;;;;;;;;;4988728;28;20069;-88
2021/09/30 11:05:39;;;;;;;10.95;3.35;;;;;;;;;;4990226;28;20034;-88
2021/09/30 11:08:22;;;;;;;9.65;2.53;;;;;;;;;;4989326;28;20034;-87
2021/09/30 11:11:11;;;;;;;12.73;2.45;;;;;;;;;;4987025;28;20519;-88
2021/09/30 11:14:00;;;;;;;14.07;2.33;;;;;;;;;;4965251;28;20526;-86
2021/09/30 11:16:39;;;;;;;9.43;2.42;;;;;;;;;;4946027;28;20050;-87
2021/09/30 11:19:22;;;;;;;11.25;2.10;;;;;;;;;;4948104;28;20042;-87
2021/09/30 11:21:51;;;;;;;8.82;2.33;;;;;;;;;;4962305;28;20046;-87
2021/09/30 11:24:27;;;;;;;9.50;1.85;;;;;;;;;;4949226;28;20053;-88
2021/09/30 11:26:55;;;;;;;7.57;2.25;;;;;;;;;;4950869;28;20042;-89
2021/09/30 11:29:25;;;;;;;12.27;2.67;;;;;;;;;;4949375;28;20042;-88
2021/09/30 11:31:52;;;;;;;8.73;2.55;;;;;;;;;;4953572;28;20161;-89
2021/09/30 11:34:21;;;;;;;10.52;2.53;;;;;;;;;;4952039;28;20062;-90
2021/09/30 11:36:50;;;;;;;12.75;2.70;;;;;;;;;;4951396;28;20760;-89
2021/09/30 11:39:18;;;;;;;11.30;2.33;;;;;;;;;;4953439;28;20050;-90
2021/09/30 11:41:47;;;;;;;9.40;2.55;;;;;;;;;;4950675;28;20061;-89
2021/09/30 11:44:15;;;;;;;11.35;3.00;;;;;;;;;;4954901;28;20034;-89
2021/09/30 11:46:43;;;;;;;13.55;3.15;;;;;;;;;;4971416;28;20065;-89
2021/09/30 11:49:16;;;;;;;9.43;2.70;;;;;;;;;;4971180;28;20042;-88
2021/09/30 11:51:45;;;;;;;12.93;2.88;;;;;;;;;;4986173;28;20053;-87
2021/09/30 11:54:12;;;;;;;15.38;2.63;;;;;;;;;;4994414;28;20809;-89
2021/09/30 11:56:40;;;;;;;9.57;2.17;;;;;;;;;;4988230;28;20034;-89
2021/09/30 11:59:08;;;;;;;10.20;2.33;;;;;;;;;;4996044;28;20096;-88
2021/09/30 12:01:35;;;;;;;48.28;29.30;;;;;;;;;;4981241;28;20042;-90
2021/09/30 12:04:04;;;;;;;32.25;14.57;;;;;;;;;;4996519;28;20116;-90
2021/09/30 12:06:47;;;;;;;12.70;4.72;;;;;;;;;;4973910;28;20036;-83
2021/09/30 12:09:20;;;;;;;12.13;3.53;;;;;;;;;;4986821;28;20017;-82
2021/09/30 12:12:00;;;;;;;11.60;2.70;;;;;;;;;;4978587;28;20031;-80
2021/09/30 12:14:45;;;;;;;12.68;3.00;;;;;;;;;;4968105;28;20559;-83
2021/09/30 12:17:15;;;;;;;12.60;2.78;;;;;;;;;;4995528;28;20048;-81
2021/09/30 12:19:45;;;;;;;12.65;2.78;;;;;;;;;;4992992;28;20042;-82
2021/09/30 12:22:16;;;;;;;14.18;3.08;;;;;;;;;;4967448;28;20107;-81
2021/09/30 12:24:49;;;;;;;9.68;2.70;;;;;;;;;;4974920;28;21563;-82
2021/09/30 12:27:17;;;;;;;11.95;2.60;;;;;;;;;;4981965;28;20083;-82
2021/09/30 12:29:48;;;;;;;13.73;2.85;;;;;;;;;;4982011;28;20049;-82
2021/09/30 12:32:19;;;;;;;11.30;2.67;;;;;;;;;;4980294;28;20034;-81
2021/09/30 12:34:59;;;;;;;9.30;2.30;;;;;;;;;;4950780;28;20532;-81
2021/09/30 12:37:29;;;;;;;8.35;2.20;;;;;;;;;;4995180;28;20120;-81
2021/09/30 12:40:01;;;;;;;9.38;2.30;;;;;;;;;;4978385;28;20088;-81
2021/09/30 12:42:29;;;;;;;12.93;3.10;;;;;;;;;;4964459;28;20021;-81
2021/09/30 12:44:58;;;;;;;12.75;2.92;;;;;;;;;;5000353;28;20442;-81
2021/09/30 12:47:44;;;;;;;13.02;3.50;;;;;;;;;;4992719;28;20065;-81
2021/09/30 12:50:18;;;;;;;8.60;2.92;;;;;;;;;;4970130;28;20050;-81
2021/09/30 12:52:45;;;;;;;11.57;2.55;;;;;;;;;;4978350;28;20798;-81
2021/09/30 12:55:28;;;;;;;12.60;2.72;;;;;;;;;;4990967;28;20033;-81
2021/09/30 12:57:54;;;;;;;8.18;2.22;;;;;;;;;;4969270;28;20053;-81
2021/09/30 13:00:22;;;;;;;11.02;2.75;;;;;;;;;;4983597;28;20045;-82
2021/09/30 13:02:55;;;;;;;12.23;3.03;;;;;;;;;;4998985;28;20110;-81
2021/09/30 13:05:26;;;;;;;10.38;2.80;;;;;;;;;;4963495;28;20507;-80
2021/09/30 13:07:57;;;;;;;9.57;2.80;;;;;;;;;;4994268;28;20418;-81
2021/09/30 13:10:37;;;;;;;8.15;2.25;;;;;;;;;;5002883;28;20104;-81
2021/09/30 13:13:08;;;;;;;9.85;2.42;;;;;;;;;;4985190;28;20072;-82
2021/09/30 13:15:42;;;;;;;11.07;2.88;;;;;;;;;;4978088;28;20085;-81
2021/09/30 13:18:13;;;;;;;9.82;2.70;;;;;;;;;;4971881;28;20042;-81
2021/09/30 13:21:08;;;;;;;11.38;3.03;;;;;;;;;;4903912;28;20078;-81
2021/09/30 13:23:36;;;;;;;10.57;3.13;;;;;;;;;;4927956;28;20554;-84
2021/09/30 13:26:03;;;;;;;10.43;3.05;;;;;;;;;;4929641;28;20106;-83
2021/09/30 13:28:31;;;;;;;11.95;3.38;;;;;;;;;;4924456;28;20065;-83
2021/09/30 13:31:00;;;;;;;10.77;3.03;;;;;;;;;;4926622;28;20045;-82
2021/09/30 13:33:27;;;;;;;11.73;2.70;;;;;;;;;;4942571;28;20039;-81
2021/09/30 13:36:09;;;;;;;11.23;2.97;;;;;;;;;;4926555;28;20043;-84
2021/09/30 13:38:37;;;;;;;10.90;3.42;;;;;;;;;;4903716;28;20060;-83
2021/09/30 13:41:09;;;;;;;8.70;2.85;;;;;;;;;;4932749;28;20954;-83
2021/09/30 13:43:38;;;;;;;9.75;2.90;;;;;;;;;;4924173;28;20126;-82
2021/09/30 13:46:09;;;;;;;11.98;2.95;;;;;;;;;;4927367;28;20159;-82
2021/09/30 13:48:38;;;;;;;9.60;2.50;;;;;;;;;;4906695;28;20044;-83
2021/09/30 13:51:07;;;;;;;12.00;2.92;;;;;;;;;;4913227;28;21028;-82
2021/09/30 13:53:34;;;;;;;8.63;2.63;;;;;;;;;;4915264;28;20578;-82
2021/09/30 13:56:02;;;;;;;7.30;2.30;;;;;;;;;;4911992;28;20508;-83
2021/09/30 13:58:35;;;;;;;8.60;2.65;;;;;;;;;;4910223;28;20035;-82
2021/09/30 14:01:04;;;;;;;9.45;2.85;;;;;;;;;;4925382;28;20036;-81
2021/09/30 14:03:34;;;;;;;9.20;2.72;;;;;;;;;;4924156;28;20039;-82
2021/09/30 14:06:02;;;;;;;7.13;2.40;;;;;;;;;;4976866;28;20050;-82
2021/09/30 14:08:32;;;;;;;8.15;2.58;;;;;;;;;;4963724;28;20041;-80
2021/09/30 14:11:00;;;;;;;8.38;2.33;;;;;;;;;;4989530;28;20636;-82
2021/09/30 14:13:26;;;;;;;7.72;2.50;;;;;;;;;;4962649;28;20038;-80
2021/09/30 14:15:53;;;;;;;9.73;2.53;;;;;;;;;;4987712;28;20258;-80
2021/09/30 14:18:20;;;;;;;8.48;2.78;;;;;;;;;;4984150;28;20033;-81
2021/09/30 14:20:51;;;;;;;11.40;3.17;;;;;;;;;;4978814;28;20041;-82
2021/09/30 14:23:28;;;;;;;10.10;2.75;;;;;;;;;;4988381;28;20037;-80
2021/09/30 14:26:01;;;;;;;9.05;2.67;;;;;;;;;;4966510;28;20065;-80
2021/09/30 14:28:31;;;;;;;9.60;2.40;;;;;;;;;;4983128;28;20485;-80
2021/09/30 14:30:59;;;;;;;9.02;2.25;;;;;;;;;;4987867;28;20038;-81
2021/09/30 14:33:32;;;;;;;10.20;2.60;;;;;;;;;;4981709;28;20471;-81
2021/09/30 14:36:01;;;;;;;8.15;2.20;;;;;;;;;;4987542;28;20030;-80
2021/09/30 14:38:29;;;;;;;8.23;2.25;;;;;;;;;;4964858;28;20034;-80
2021/09/30 14:40:57;;;;;;;10.18;2.30;;;;;;;;;;4969827;28;20069;-82
2021/09/30 14:43:26;;;;;;;11.57;2.10;;;;;;;;;;4978834;28;20066;-83
2021/09/30 14:45:55;;;;;;;9.98;2.55;;;;;;;;;;4968627;28;20439;-82
2021/09/30 14:48:23;;;;;;;10.00;2.20;;;;;;;;;;4985295;28;20041;-81
2021/09/30 14:50:52;;;;;;;9.25;2.08;;;;;;;;;;4986846;28;20041;-80
2021/09/30 14:53:22;;;;;;;8.98;2.03;;;;;;;;;;4969207;28;20039;-81
2021/09/30 14:55:51;;;;;;;10.65;2.10;;;;;;;;;;4992731;28;20073;-81
2021/09/30 14:58:17;;;;;;;12.60;2.17;;;;;;;;;;5007968;28;20133;-82
2021/09/30 15:00:44;;;;;;;9.50;2.30;;;;;;;;;;4996334;28;20772;-81
2021/09/30 15:03:13;;;;;;;9.80;2.20;;;;;;;;;;4995687;28;20077;-81
2021/09/30 15:05:41;;;;;;;9.70;2.00;;;;;;;;;;4966003;28;20042;-81
2021/09/30 15:08:11;;;;;;;9.02;2.10;;;;;;;;;;4969310;28;20042;-81
2021/09/30 15:10:39;;;;;;;8.82;2.22;;;;;;;;;;4952238;28;20049;-81
2021/09/30 15:13:08;;;;;;;10.13;2.67;;;;;;;;;;4952250;28;20189;-81
2021/09/30 15:15:37;;;;;;;8.48;2.05;;;;;;;;;;4944203;28;20086;-81
2021/09/30 15:18:08;;;;;;;9.25;2.35;;;;;;;;;;4946308;28;20061;-81
2021/09/30 15:23:23;;;;;;;8.65;2.42;;;;;;;;;;4948810;28;20072;-81
2021/09/30 15:25:52;;;;;;;8.38;2.35;;;;;;;;;;4945085;28;20042;-81
2021/09/30 15:28:20;;;;;;;10.27;2.20;;;;;;;;;;4942522;28;20595;-80
2021/09/30 15:30:48;;;;;;;8.95;2.72;;;;;;;;;;4938383;28;20038;-81
2021/09/30 15:33:16;;;;;;;11.88;2.80;;;;;;;;;;4961659;28;20041;-80
2021/09/30 15:35:43;;;;;;;11.70;2.72;;;;;;;;;;4940472;28;20039;-80
2021/09/30 15:38:13;;;;;;;10.73;2.80;;;;;;;;;;4940573;28;20047;-82
2021/09/30 15:40:43;;;;;;;11.23;2.85;;;;;;;;;;4938383;28;20054;-82
2021/09/30 15:43:10;;;;;;;10.18;3.08;;;;;;;;;;4945470;28;20200;-82
2021/09/30 15:45:38;;;;;;;7.75;2.53;;;;;;;;;;4933922;28;20035;-82
2021/09/30 15:48:06;;;;;;;8.40;2.40;;;;;;;;;;4959452;28;20441;-83
2021/09/30 15:50:34;;;;;;;8.38;2.13;;;;;;;;;;4933365;28;20102;-81
2021/09/30 15:53:04;;;;;;;8.38;2.38;;;;;;;;;;4911807;28;20070;-83
2021/09/30 15:55:34;;;;;;;8.63;2.53;;;;;;;;;;4919874;28;20039;-83
2021/09/30 15:58:02;;;;;;;7.60;2.30;;;;;;;;;;4928241;28;20051;-82
2021/09/30 16:00:32;;;;;;;9.00;2.03;;;;;;;;;;4929235;28;20035;-82
2021/09/30 16:03:03;;;;;;;11.82;2.38;;;;;;;;;;4926908;28;20131;-81
2021/09/30 16:05:30;;;;;;;9.00;2.25;;;;;;;;;;4937414;28;20174;-81
2021/09/30 16:07:57;;;;;;;12.52;2.45;;;;;;;;;;4973956;28;20042;-81
2021/09/30 16:10:24;;;;;;;13.38;2.28;;;;;;;;;;4951352;28;20678;-82
2021/09/30 16:12:54;;;;;;;10.68;2.42;;;;;;;;;;4963809;28;20173;-81
2021/09/30 16:15:23;;;;;;;8.30;1.98;;;;;;;;;;4970674;28;20027;-82
2021/09/30 16:17:51;;;;;;;13.02;2.20;;;;;;;;;;4959263;28;20072;-83
2021/09/30 16:20:20;;;;;;;8.23;1.90;;;;;;;;;;4969092;28;20038;-82
2021/09/30 16:22:50;;;;;;;14.80;2.28;;;;;;;;;;4944944;28;21976;-83
2021/09/30 16:25:19;;;;;;;8.85;2.45;;;;;;;;;;4967594;28;20532;-83
2021/09/30 16:27:48;;;;;;;8.65;2.40;;;;;;;;;;4958727;28;20121;-84
2021/09/30 16:30:17;;;;;;;11.52;2.50;;;;;;;;;;4943881;28;20038;-82
2021/09/30 16:32:46;;;;;;;10.27;2.28;;;;;;;;;;4964345;28;20042;-82
2021/09/30 16:35:15;;;;;;;8.70;2.22;;;;;;;;;;4952254;28;20442;-83
2021/09/30 16:37:42;;;;;;;11.45;2.40;;;;;;;;;;4943646;28;20038;-82
2021/09/30 16:40:14;;;;;;;11.23;2.38;;;;;;;;;;4935013;28;20442;-84
2021/09/30 16:42:42;;;;;;;14.82;2.78;;;;;;;;;;4929060;28;20041;-82
2021/09/30 16:45:14;;;;;;;9.43;2.10;;;;;;;;;;4965310;28;20026;-82
2021/09/30 16:47:45;;;;;;;9.68;2.10;;;;;;;;;;4961307;28;20042;-83
2021/09/30 16:50:15;;;;;;;8.73;2.00;;;;;;;;;;4935652;28;20511;-81
2021/09/30 16:52:46;;;;;;;8.82;2.20;;;;;;;;;;4962643;28;20152;-81
2021/09/30 16:55:15;;;;;;;11.07;1.95;;;;;;;;;;4969746;28;20169;-81
2021/09/30 16:57:43;;;;;;;9.02;2.17;;;;;;;;;;4958739;28;20033;-82
2021/09/30 17:00:13;;;;;;;11.50;2.20;;;;;;;;;;4963850;28;20038;-81
2021/09/30 17:02:42;;;;;;;10.38;2.15;;;;;;;;;;4972716;28;20033;-81
2021/09/30 17:05:16;;;;;;;9.07;2.05;;;;;;;;;;4977929;28;20038;-82
2021/09/30 17:07:43;;;;;;;8.10;2.00;;;;;;;;;;4960206;28;20029;-81
2021/09/30 17:10:14;;;;;;;9.30;1.90;;;;;;;;;;4962214;28;20298;-81
2021/09/30 17:12:50;;;;;;;18.92;6.70;;;;;;;;;;4981186;28;20046;-86
2021/09/30 17:15:25;;;;;;;8.75;2.67;;;;;;;;;;4975575;28;20152;-88
2021/09/30 17:17:53;;;;;;;8.98;2.10;;;;;;;;;;4963646;28;20038;-86
2021/09/30 17:21:07;;;;;;;11.15;2.78;;;;;;;;;;4955650;28;20741;-90
2021/09/30 17:23:36;;;;;;;9.90;2.60;;;;;;;;;;4939106;28;20054;-88
2021/09/30 17:26:04;;;;;;;13.32;3.60;;;;;;;;;;4918604;28;20043;-88
2021/09/30 17:28:34;;;;;;;11.80;3.30;;;;;;;;;;4918056;28;20807;-89
2021/09/30 17:31:02;;;;;;;9.68;2.78;;;;;;;;;;4900544;28;20856;-87
2021/09/30 17:33:34;;;;;;;11.98;2.75;;;;;;;;;;4908100;28;20150;-86
2021/09/30 17:36:01;;;;;;;11.80;3.00;;;;;;;;;;4908490;28;20039;-86
2021/09/30 17:38:31;;;;;;;9.57;2.95;;;;;;;;;;4892902;28;20076;-88
2021/09/30 17:40:58;;;;;;;9.00;3.10;;;;;;;;;;4907176;28;20046;-87
2021/09/30 17:43:32;;;;;;;10.82;2.90;;;;;;;;;;4926420;28;21082;-83
2021/09/30 17:46:05;;;;;;;11.70;3.28;;;;;;;;;;4904877;29;20323;-84
2021/09/30 17:55:10;;;;;;;13.93;4.10;;;;;;;;;;4827039;29;20159;-84
2021/09/30 17:57:41;;;;;;;18.40;6.65;;;;;;;;;;4842626;29;20040;-83
2021/09/30 18:00:13;;;;;;;18.73;7.70;;;;;;;;;;4846471;29;20901;-83